sensor_id;sensor_type;location;lat;lon;timestamp;P1;durP1;ratioP1;P2;durP2;ratioP2
14472;SDS011;7322;50.872;4.386;2022-08-19T00:00:29;24.17;;;21.87;;
14472;SDS011;7322;50.872;4.386;2022-08-19T00:02:57;26.00;;;23.40;;
14472;SDS011;7322;50.872;4.386;2022-08-19T00:05:24;26.73;;;24.13;;
14472;SDS011;7322;50.872;4.386;2022-08-19T00:07:51;26.50;;;24.00;;
14472;SDS011;7322;50.872;4.386;2022-08-19T00:10:18;28.13;;;25.17;;
14472;SDS011;7322;50.872;4.386;2022-08-19T00:12:46;29.60;;;26.70;;
14472;SDS011;7322;50.872;4.386;2022-08-19T00:15:15;29.07;;;26.17;;
14472;SDS011;7322;50.872;4.386;2022-08-19T00:17:44;31.90;;;28.60;;
14472;SDS011;7322;50.872;4.386;2022-08-19T00:20:13;33.83;;;30.23;;
14472;SDS011;7322;50.872;4.386;2022-08-19T00:22:42;32.40;;;29.10;;
14472;SDS011;7322;50.872;4.386;2022-08-19T00:25:10;35.77;;;31.97;;
14472;SDS011;7322;50.872;4.386;2022-08-19T00:27:39;36.67;;;32.57;;
14472;SDS011;7322;50.872;4.386;2022-08-19T00:30:12;37.57;;;33.47;;
14472;SDS011;7322;50.872;4.386;2022-08-19T00:32:49;41.40;;;34.70;;
14472;SDS011;7322;50.872;4.386;2022-08-19T00:35:17;45.97;;;37.40;;
14472;SDS011;7322;50.872;4.386;2022-08-19T00:37:46;45.67;;;38.17;;
14472;SDS011;7322;50.872;4.386;2022-08-19T00:40:32;47.93;;;39.47;;
14472;SDS011;7322;50.872;4.386;2022-08-19T00:43:07;43.47;;;37.50;;
14472;SDS011;7322;50.872;4.386;2022-08-19T00:45:38;47.23;;;38.60;;
14472;SDS011;7322;50.872;4.386;2022-08-19T00:48:17;49.80;;;40.47;;
14472;SDS011;7322;50.872;4.386;2022-08-19T00:50:52;56.03;;;42.47;;
14472;SDS011;7322;50.872;4.386;2022-08-19T00:53:22;51.83;;;43.80;;
14472;SDS011;7322;50.872;4.386;2022-08-19T00:55:53;55.97;;;45.63;;
14472;SDS011;7322;50.872;4.386;2022-08-19T00:58:24;55.07;;;44.57;;
14472;SDS011;7322;50.872;4.386;2022-08-19T01:00:54;57.93;;;46.63;;
14472;SDS011;7322;50.872;4.386;2022-08-19T01:03:28;53.50;;;44.80;;
14472;SDS011;7322;50.872;4.386;2022-08-19T01:05:58;55.77;;;45.57;;
14472;SDS011;7322;50.872;4.386;2022-08-19T01:08:28;55.17;;;45.17;;
14472;SDS011;7322;50.872;4.386;2022-08-19T01:10:56;54.23;;;44.13;;
14472;SDS011;7322;50.872;4.386;2022-08-19T01:13:25;57.80;;;47.60;;
14472;SDS011;7322;50.872;4.386;2022-08-19T01:18:29;52.37;;;43.90;;
14472;SDS011;7322;50.872;4.386;2022-08-19T01:21:15;52.80;;;44.50;;
14472;SDS011;7322;50.872;4.386;2022-08-19T01:23:50;46.90;;;41.77;;
14472;SDS011;7322;50.872;4.386;2022-08-19T01:26:22;47.73;;;39.27;;
14472;SDS011;7322;50.872;4.386;2022-08-19T01:28:52;45.37;;;38.00;;
14472;SDS011;7322;50.872;4.386;2022-08-19T01:31:22;47.23;;;38.67;;
14472;SDS011;7322;50.872;4.386;2022-08-19T01:33:51;46.37;;;38.70;;
14472;SDS011;7322;50.872;4.386;2022-08-19T01:38:52;47.10;;;38.97;;
14472;SDS011;7322;50.872;4.386;2022-08-19T01:41:19;44.97;;;38.63;;
14472;SDS011;7322;50.872;4.386;2022-08-19T01:43:48;46.60;;;38.07;;
14472;SDS011;7322;50.872;4.386;2022-08-19T01:46:16;45.23;;;37.97;;
14472;SDS011;7322;50.872;4.386;2022-08-19T01:48:44;41.83;;;36.70;;
14472;SDS011;7322;50.872;4.386;2022-08-19T01:51:11;41.90;;;35.23;;
14472;SDS011;7322;50.872;4.386;2022-08-19T01:53:39;38.20;;;34.07;;
14472;SDS011;7322;50.872;4.386;2022-08-19T01:56:07;38.57;;;32.80;;
14472;SDS011;7322;50.872;4.386;2022-08-19T01:58:36;37.00;;;32.13;;
14472;SDS011;7322;50.872;4.386;2022-08-19T02:01:07;35.20;;;31.40;;
14472;SDS011;7322;50.872;4.386;2022-08-19T02:03:34;34.50;;;30.50;;
14472;SDS011;7322;50.872;4.386;2022-08-19T02:06:01;37.13;;;32.73;;
14472;SDS011;7322;50.872;4.386;2022-08-19T02:08:30;34.53;;;29.40;;
14472;SDS011;7322;50.872;4.386;2022-08-19T02:10:58;35.27;;;29.17;;
14472;SDS011;7322;50.872;4.386;2022-08-19T02:13:26;33.00;;;29.40;;
14472;SDS011;7322;50.872;4.386;2022-08-19T02:15:53;32.70;;;29.20;;
14472;SDS011;7322;50.872;4.386;2022-08-19T02:18:20;27.97;;;24.97;;
14472;SDS011;7322;50.872;4.386;2022-08-19T02:20:47;25.73;;;22.70;;
14472;SDS011;7322;50.872;4.386;2022-08-19T02:23:15;25.40;;;22.60;;
14472;SDS011;7322;50.872;4.386;2022-08-19T02:25:43;28.40;;;23.97;;
14472;SDS011;7322;50.872;4.386;2022-08-19T02:28:11;28.73;;;25.63;;
14472;SDS011;7322;50.872;4.386;2022-08-19T02:30:41;28.37;;;23.60;;
14472;SDS011;7322;50.872;4.386;2022-08-19T02:33:08;29.73;;;26.50;;
14472;SDS011;7322;50.872;4.386;2022-08-19T02:35:35;27.17;;;24.37;;
14472;SDS011;7322;50.872;4.386;2022-08-19T02:38:02;30.03;;;26.80;;
14472;SDS011;7322;50.872;4.386;2022-08-19T02:40:50;30.63;;;27.33;;
14472;SDS011;7322;50.872;4.386;2022-08-19T02:43:17;32.60;;;27.40;;
14472;SDS011;7322;50.872;4.386;2022-08-19T02:45:47;30.90;;;25.67;;
14472;SDS011;7322;50.872;4.386;2022-08-19T02:48:16;29.37;;;25.27;;
14472;SDS011;7322;50.872;4.386;2022-08-19T02:50:44;27.57;;;24.67;;
14472;SDS011;7322;50.872;4.386;2022-08-19T02:53:12;27.77;;;23.67;;
14472;SDS011;7322;50.872;4.386;2022-08-19T02:55:42;30.03;;;24.73;;
14472;SDS011;7322;50.872;4.386;2022-08-19T02:58:10;30.17;;;25.33;;
14472;SDS011;7322;50.872;4.386;2022-08-19T03:00:41;31.60;;;26.37;;
14472;SDS011;7322;50.872;4.386;2022-08-19T03:03:11;30.40;;;25.83;;
14472;SDS011;7322;50.872;4.386;2022-08-19T03:05:38;29.53;;;24.73;;
14472;SDS011;7322;50.872;4.386;2022-08-19T03:08:06;31.20;;;25.87;;
14472;SDS011;7322;50.872;4.386;2022-08-19T03:10:33;31.33;;;25.57;;
14472;SDS011;7322;50.872;4.386;2022-08-19T03:13:09;32.63;;;25.87;;
14472;SDS011;7322;50.872;4.386;2022-08-19T03:15:41;30.67;;;24.83;;
14472;SDS011;7322;50.872;4.386;2022-08-19T03:18:09;30.40;;;25.07;;
14472;SDS011;7322;50.872;4.386;2022-08-19T03:20:41;32.60;;;24.83;;
14472;SDS011;7322;50.872;4.386;2022-08-19T03:23:09;29.73;;;24.23;;
14472;SDS011;7322;50.872;4.386;2022-08-19T03:25:39;31.07;;;25.40;;
14472;SDS011;7322;50.872;4.386;2022-08-19T03:28:08;32.13;;;24.30;;
14472;SDS011;7322;50.872;4.386;2022-08-19T03:30:35;32.27;;;25.47;;
14472;SDS011;7322;50.872;4.386;2022-08-19T03:33:02;33.63;;;24.83;;
14472;SDS011;7322;50.872;4.386;2022-08-19T03:35:31;28.70;;;24.87;;
14472;SDS011;7322;50.872;4.386;2022-08-19T03:37:58;29.30;;;24.00;;
14472;SDS011;7322;50.872;4.386;2022-08-19T03:40:25;27.67;;;23.03;;
14472;SDS011;7322;50.872;4.386;2022-08-19T03:42:54;28.67;;;24.00;;
14472;SDS011;7322;50.872;4.386;2022-08-19T03:45:21;29.87;;;25.27;;
14472;SDS011;7322;50.872;4.386;2022-08-19T03:47:48;30.13;;;24.30;;
14472;SDS011;7322;50.872;4.386;2022-08-19T03:50:16;29.30;;;24.63;;
14472;SDS011;7322;50.872;4.386;2022-08-19T03:52:49;32.73;;;26.17;;
14472;SDS011;7322;50.872;4.386;2022-08-19T03:55:16;30.30;;;24.00;;
14472;SDS011;7322;50.872;4.386;2022-08-19T03:57:51;30.27;;;24.07;;
14472;SDS011;7322;50.872;4.386;2022-08-19T04:00:30;29.60;;;25.07;;
14472;SDS011;7322;50.872;4.386;2022-08-19T04:03:02;29.77;;;24.23;;
14472;SDS011;7322;50.872;4.386;2022-08-19T04:05:30;30.07;;;24.27;;
14472;SDS011;7322;50.872;4.386;2022-08-19T04:07:58;31.67;;;23.47;;
14472;SDS011;7322;50.872;4.386;2022-08-19T04:10:25;33.43;;;25.23;;
14472;SDS011;7322;50.872;4.386;2022-08-19T04:12:53;32.47;;;25.53;;
14472;SDS011;7322;50.872;4.386;2022-08-19T04:15:20;28.80;;;25.53;;
14472;SDS011;7322;50.872;4.386;2022-08-19T04:17:47;29.63;;;24.10;;
14472;SDS011;7322;50.872;4.386;2022-08-19T04:20:14;30.47;;;23.83;;
14472;SDS011;7322;50.872;4.386;2022-08-19T04:22:41;31.13;;;24.57;;
14472;SDS011;7322;50.872;4.386;2022-08-19T04:25:10;31.73;;;24.43;;
14472;SDS011;7322;50.872;4.386;2022-08-19T04:27:38;33.70;;;25.53;;
14472;SDS011;7322;50.872;4.386;2022-08-19T04:30:08;31.47;;;24.20;;
14472;SDS011;7322;50.872;4.386;2022-08-19T04:32:36;32.30;;;22.57;;
14472;SDS011;7322;50.872;4.386;2022-08-19T04:35:03;30.63;;;23.17;;
14472;SDS011;7322;50.872;4.386;2022-08-19T04:37:31;28.83;;;22.80;;
14472;SDS011;7322;50.872;4.386;2022-08-19T04:39:58;35.07;;;24.77;;
14472;SDS011;7322;50.872;4.386;2022-08-19T04:42:44;32.37;;;22.93;;
14472;SDS011;7322;50.872;4.386;2022-08-19T04:45:12;30.87;;;23.63;;
14472;SDS011;7322;50.872;4.386;2022-08-19T04:47:41;28.17;;;22.73;;
14472;SDS011;7322;50.872;4.386;2022-08-19T04:50:09;31.80;;;21.53;;
14472;SDS011;7322;50.872;4.386;2022-08-19T04:52:37;22.83;;;19.77;;
14472;SDS011;7322;50.872;4.386;2022-08-19T04:55:07;26.77;;;20.50;;
14472;SDS011;7322;50.872;4.386;2022-08-19T04:57:35;25.67;;;19.77;;
14472;SDS011;7322;50.872;4.386;2022-08-19T05:00:07;25.77;;;19.47;;
14472;SDS011;7322;50.872;4.386;2022-08-19T05:02:35;28.53;;;19.43;;
14472;SDS011;7322;50.872;4.386;2022-08-19T05:05:03;23.80;;;19.00;;
14472;SDS011;7322;50.872;4.386;2022-08-19T05:07:31;25.33;;;18.57;;
14472;SDS011;7322;50.872;4.386;2022-08-19T05:09:58;22.90;;;18.43;;
14472;SDS011;7322;50.872;4.386;2022-08-19T05:12:25;23.70;;;18.13;;
14472;SDS011;7322;50.872;4.386;2022-08-19T05:14:53;22.07;;;17.63;;
14472;SDS011;7322;50.872;4.386;2022-08-19T05:17:24;26.83;;;17.37;;
14472;SDS011;7322;50.872;4.386;2022-08-19T05:19:51;26.27;;;16.70;;
14472;SDS011;7322;50.872;4.386;2022-08-19T05:22:35;26.03;;;18.63;;
14472;SDS011;7322;50.872;4.386;2022-08-19T05:25:04;27.60;;;18.90;;
14472;SDS011;7322;50.872;4.386;2022-08-19T05:27:32;25.47;;;17.17;;
14472;SDS011;7322;50.872;4.386;2022-08-19T05:29:59;25.13;;;18.30;;
14472;SDS011;7322;50.872;4.386;2022-08-19T05:32:29;21.77;;;17.30;;
14472;SDS011;7322;50.872;4.386;2022-08-19T05:34:56;24.93;;;17.50;;
14472;SDS011;7322;50.872;4.386;2022-08-19T05:37:24;24.50;;;17.47;;
14472;SDS011;7322;50.872;4.386;2022-08-19T05:39:52;20.70;;;15.47;;
14472;SDS011;7322;50.872;4.386;2022-08-19T05:42:20;27.00;;;17.00;;
14472;SDS011;7322;50.872;4.386;2022-08-19T05:44:48;21.23;;;15.73;;
14472;SDS011;7322;50.872;4.386;2022-08-19T05:47:16;22.67;;;15.17;;
14472;SDS011;7322;50.872;4.386;2022-08-19T05:49:46;19.53;;;14.50;;
14472;SDS011;7322;50.872;4.386;2022-08-19T05:52:14;21.60;;;14.37;;
14472;SDS011;7322;50.872;4.386;2022-08-19T05:54:42;20.77;;;16.07;;
14472;SDS011;7322;50.872;4.386;2022-08-19T05:57:12;22.73;;;15.30;;
14472;SDS011;7322;50.872;4.386;2022-08-19T05:59:40;23.03;;;15.37;;
14472;SDS011;7322;50.872;4.386;2022-08-19T06:02:10;21.90;;;14.67;;
14472;SDS011;7322;50.872;4.386;2022-08-19T06:04:42;20.83;;;15.87;;
14472;SDS011;7322;50.872;4.386;2022-08-19T06:07:23;19.70;;;14.73;;
14472;SDS011;7322;50.872;4.386;2022-08-19T06:09:52;18.63;;;14.77;;
14472;SDS011;7322;50.872;4.386;2022-08-19T06:12:21;23.93;;;14.20;;
14472;SDS011;7322;50.872;4.386;2022-08-19T06:14:51;20.30;;;14.40;;
14472;SDS011;7322;50.872;4.386;2022-08-19T06:17:19;18.60;;;13.13;;
14472;SDS011;7322;50.872;4.386;2022-08-19T06:19:50;18.27;;;12.53;;
14472;SDS011;7322;50.872;4.386;2022-08-19T06:22:18;18.37;;;12.93;;
14472;SDS011;7322;50.872;4.386;2022-08-19T06:24:47;19.93;;;12.73;;
14472;SDS011;7322;50.872;4.386;2022-08-19T06:27:17;18.27;;;12.27;;
14472;SDS011;7322;50.872;4.386;2022-08-19T06:29:44;22.93;;;12.60;;
14472;SDS011;7322;50.872;4.386;2022-08-19T06:32:11;18.50;;;10.93;;
14472;SDS011;7322;50.872;4.386;2022-08-19T06:34:41;20.80;;;11.33;;
14472;SDS011;7322;50.872;4.386;2022-08-19T06:37:08;16.47;;;11.27;;
14472;SDS011;7322;50.872;4.386;2022-08-19T06:39:39;17.40;;;11.30;;
14472;SDS011;7322;50.872;4.386;2022-08-19T06:42:08;16.97;;;10.70;;
14472;SDS011;7322;50.872;4.386;2022-08-19T06:44:38;19.97;;;10.10;;
14472;SDS011;7322;50.872;4.386;2022-08-19T06:47:08;13.23;;;9.30;;
14472;SDS011;7322;50.872;4.386;2022-08-19T06:49:37;13.60;;;9.47;;
14472;SDS011;7322;50.872;4.386;2022-08-19T06:52:04;13.57;;;9.17;;
14472;SDS011;7322;50.872;4.386;2022-08-19T06:54:31;15.57;;;9.53;;
14472;SDS011;7322;50.872;4.386;2022-08-19T06:57:01;16.23;;;9.40;;
14472;SDS011;7322;50.872;4.386;2022-08-19T06:59:30;14.77;;;10.13;;
14472;SDS011;7322;50.872;4.386;2022-08-19T07:01:59;14.13;;;9.90;;
14472;SDS011;7322;50.872;4.386;2022-08-19T07:04:28;15.97;;;10.40;;
14472;SDS011;7322;50.872;4.386;2022-08-19T07:06:58;19.37;;;9.97;;
14472;SDS011;7322;50.872;4.386;2022-08-19T07:09:26;13.53;;;8.73;;
14472;SDS011;7322;50.872;4.386;2022-08-19T07:11:54;16.80;;;9.57;;
14472;SDS011;7322;50.872;4.386;2022-08-19T07:14:23;13.70;;;9.37;;
14472;SDS011;7322;50.872;4.386;2022-08-19T07:16:54;13.07;;;10.10;;
14472;SDS011;7322;50.872;4.386;2022-08-19T07:19:28;12.83;;;9.50;;
14472;SDS011;7322;50.872;4.386;2022-08-19T07:21:56;11.97;;;9.33;;
14472;SDS011;7322;50.872;4.386;2022-08-19T07:24:25;13.17;;;9.13;;
14472;SDS011;7322;50.872;4.386;2022-08-19T07:27:03;11.53;;;9.23;;
14472;SDS011;7322;50.872;4.386;2022-08-19T07:32:20;10.87;;;8.67;;
14472;SDS011;7322;50.872;4.386;2022-08-19T07:34:49;11.27;;;8.03;;
14472;SDS011;7322;50.872;4.386;2022-08-19T07:37:21;11.67;;;8.47;;
14472;SDS011;7322;50.872;4.386;2022-08-19T07:39:50;15.57;;;7.50;;
14472;SDS011;7322;50.872;4.386;2022-08-19T07:42:18;9.50;;;7.50;;
14472;SDS011;7322;50.872;4.386;2022-08-19T07:47:16;10.93;;;7.33;;
14472;SDS011;7322;50.872;4.386;2022-08-19T07:49:45;8.43;;;7.43;;
14472;SDS011;7322;50.872;4.386;2022-08-19T07:52:12;9.83;;;7.57;;
14472;SDS011;7322;50.872;4.386;2022-08-19T07:54:39;9.33;;;6.50;;
14472;SDS011;7322;50.872;4.386;2022-08-19T07:57:06;7.50;;;5.93;;
14472;SDS011;7322;50.872;4.386;2022-08-19T07:59:34;10.10;;;6.13;;
14472;SDS011;7322;50.872;4.386;2022-08-19T08:02:01;10.83;;;6.80;;
14472;SDS011;7322;50.872;4.386;2022-08-19T08:04:30;12.45;;;6.75;;
14472;SDS011;7322;50.872;4.386;2022-08-19T08:07:16;11.97;;;6.43;;
14472;SDS011;7322;50.872;4.386;2022-08-19T08:10:03;11.47;;;6.67;;
14472;SDS011;7322;50.872;4.386;2022-08-19T08:12:38;9.33;;;7.13;;
14472;SDS011;7322;50.872;4.386;2022-08-19T08:15:08;10.03;;;6.90;;
14472;SDS011;7322;50.872;4.386;2022-08-19T08:17:41;9.07;;;6.23;;
14472;SDS011;7322;50.872;4.386;2022-08-19T08:20:09;9.73;;;5.90;;
14472;SDS011;7322;50.872;4.386;2022-08-19T08:22:41;8.77;;;6.10;;
14472;SDS011;7322;50.872;4.386;2022-08-19T08:25:27;11.07;;;6.97;;
14472;SDS011;7322;50.872;4.386;2022-08-19T08:27:57;11.00;;;6.25;;
14472;SDS011;7322;50.872;4.386;2022-08-19T08:30:25;9.70;;;6.20;;
14472;SDS011;7322;50.872;4.386;2022-08-19T08:32:54;9.00;;;6.47;;
14472;SDS011;7322;50.872;4.386;2022-08-19T08:35:21;9.80;;;6.47;;
14472;SDS011;7322;50.872;4.386;2022-08-19T08:37:51;10.97;;;6.23;;
14472;SDS011;7322;50.872;4.386;2022-08-19T08:40:21;8.77;;;5.63;;
14472;SDS011;7322;50.872;4.386;2022-08-19T08:42:53;7.53;;;6.30;;
14472;SDS011;7322;50.872;4.386;2022-08-19T08:45:26;6.70;;;5.40;;
14472;SDS011;7322;50.872;4.386;2022-08-19T08:47:55;10.97;;;6.43;;
14472;SDS011;7322;50.872;4.386;2022-08-19T08:50:29;10.10;;;7.10;;
14472;SDS011;7322;50.872;4.386;2022-08-19T08:53:03;8.13;;;6.30;;
14472;SDS011;7322;50.872;4.386;2022-08-19T08:55:31;10.37;;;7.10;;
14472;SDS011;7322;50.872;4.386;2022-08-19T08:58:00;11.67;;;7.50;;
14472;SDS011;7322;50.872;4.386;2022-08-19T09:00:31;8.73;;;6.40;;
14472;SDS011;7322;50.872;4.386;2022-08-19T09:02:59;9.07;;;7.00;;
14472;SDS011;7322;50.872;4.386;2022-08-19T09:05:30;9.93;;;6.57;;
14472;SDS011;7322;50.872;4.386;2022-08-19T09:08:07;11.67;;;7.30;;
14472;SDS011;7322;50.872;4.386;2022-08-19T09:10:43;11.60;;;6.67;;
14472;SDS011;7322;50.872;4.386;2022-08-19T09:13:14;10.17;;;6.17;;
14472;SDS011;7322;50.872;4.386;2022-08-19T09:15:50;10.13;;;6.93;;
14472;SDS011;7322;50.872;4.386;2022-08-19T09:18:21;8.73;;;6.70;;
14472;SDS011;7322;50.872;4.386;2022-08-19T09:20:48;9.73;;;6.23;;
14472;SDS011;7322;50.872;4.386;2022-08-19T09:23:16;10.53;;;6.47;;
14472;SDS011;7322;50.872;4.386;2022-08-19T09:25:43;8.77;;;6.40;;
14472;SDS011;7322;50.872;4.386;2022-08-19T09:28:10;7.40;;;5.67;;
14472;SDS011;7322;50.872;4.386;2022-08-19T09:30:38;9.27;;;5.87;;
14472;SDS011;7322;50.872;4.386;2022-08-19T09:33:07;6.93;;;6.20;;
14472;SDS011;7322;50.872;4.386;2022-08-19T09:35:36;7.03;;;5.70;;
14472;SDS011;7322;50.872;4.386;2022-08-19T09:38:03;8.10;;;5.50;;
14472;SDS011;7322;50.872;4.386;2022-08-19T09:40:32;7.93;;;5.80;;
14472;SDS011;7322;50.872;4.386;2022-08-19T09:42:59;8.83;;;6.03;;
14472;SDS011;7322;50.872;4.386;2022-08-19T09:45:28;7.60;;;5.97;;
14472;SDS011;7322;50.872;4.386;2022-08-19T09:47:55;7.07;;;5.33;;
14472;SDS011;7322;50.872;4.386;2022-08-19T09:50:22;8.10;;;6.20;;
14472;SDS011;7322;50.872;4.386;2022-08-19T09:52:50;8.00;;;5.47;;
14472;SDS011;7322;50.872;4.386;2022-08-19T09:55:19;11.27;;;6.33;;
14472;SDS011;7322;50.872;4.386;2022-08-19T09:57:48;9.33;;;6.07;;
14472;SDS011;7322;50.872;4.386;2022-08-19T10:00:14;7.90;;;6.10;;
14472;SDS011;7322;50.872;4.386;2022-08-19T10:02:42;7.87;;;5.77;;
14472;SDS011;7322;50.872;4.386;2022-08-19T10:05:09;7.73;;;5.50;;
14472;SDS011;7322;50.872;4.386;2022-08-19T10:07:54;6.90;;;5.30;;
14472;SDS011;7322;50.872;4.386;2022-08-19T10:10:21;5.13;;;4.43;;
14472;SDS011;7322;50.872;4.386;2022-08-19T10:12:50;6.87;;;5.50;;
14472;SDS011;7322;50.872;4.386;2022-08-19T10:15:20;6.17;;;4.90;;
14472;SDS011;7322;50.872;4.386;2022-08-19T10:17:47;5.63;;;5.03;;
14472;SDS011;7322;50.872;4.386;2022-08-19T10:20:15;6.47;;;4.90;;
14472;SDS011;7322;50.872;4.386;2022-08-19T10:22:42;5.70;;;4.80;;
14472;SDS011;7322;50.872;4.386;2022-08-19T10:25:09;10.43;;;9.00;;
14472;SDS011;7322;50.872;4.386;2022-08-19T10:27:38;6.97;;;5.03;;
14472;SDS011;7322;50.872;4.386;2022-08-19T10:30:07;8.23;;;4.90;;
14472;SDS011;7322;50.872;4.386;2022-08-19T10:32:35;7.03;;;5.20;;
14472;SDS011;7322;50.872;4.386;2022-08-19T10:35:02;7.85;;;5.60;;
14472;SDS011;7322;50.872;4.386;2022-08-19T10:37:33;7.38;;;5.90;;
14472;SDS011;7322;50.872;4.386;2022-08-19T10:40:00;7.43;;;6.20;;
14472;SDS011;7322;50.872;4.386;2022-08-19T10:42:30;7.25;;;5.50;;
14472;SDS011;7322;50.872;4.386;2022-08-19T10:44:57;8.17;;;5.60;;
14472;SDS011;7322;50.872;4.386;2022-08-19T10:50:03;7.07;;;5.68;;
14472;SDS011;7322;50.872;4.386;2022-08-19T10:55:18;8.27;;;6.67;;
14472;SDS011;7322;50.872;4.386;2022-08-19T10:58:09;8.40;;;7.13;;
14472;SDS011;7322;50.872;4.386;2022-08-19T11:00:38;8.85;;;7.00;;
14472;SDS011;7322;50.872;4.386;2022-08-19T11:03:08;8.03;;;6.07;;
14472;SDS011;7322;50.872;4.386;2022-08-19T11:05:35;10.27;;;6.97;;
14472;SDS011;7322;50.872;4.386;2022-08-19T11:08:03;8.23;;;6.30;;
14472;SDS011;7322;50.872;4.386;2022-08-19T11:10:32;9.03;;;6.67;;
14472;SDS011;7322;50.872;4.386;2022-08-19T11:12:59;7.67;;;6.13;;
14472;SDS011;7322;50.872;4.386;2022-08-19T11:15:26;7.97;;;7.10;;
14472;SDS011;7322;50.872;4.386;2022-08-19T11:17:53;9.30;;;7.60;;
14472;SDS011;7322;50.872;4.386;2022-08-19T11:20:22;8.67;;;7.73;;
14472;SDS011;7322;50.872;4.386;2022-08-19T11:22:55;9.63;;;6.93;;
14472;SDS011;7322;50.872;4.386;2022-08-19T11:25:22;9.10;;;6.60;;
14472;SDS011;7322;50.872;4.386;2022-08-19T11:27:50;6.97;;;5.37;;
14472;SDS011;7322;50.872;4.386;2022-08-19T11:30:17;8.00;;;6.00;;
14472;SDS011;7322;50.872;4.386;2022-08-19T11:32:44;7.67;;;5.87;;
14472;SDS011;7322;50.872;4.386;2022-08-19T11:35:12;8.53;;;6.03;;
14472;SDS011;7322;50.872;4.386;2022-08-19T11:37:41;7.27;;;6.37;;
14472;SDS011;7322;50.872;4.386;2022-08-19T11:40:08;7.43;;;5.90;;
14472;SDS011;7322;50.872;4.386;2022-08-19T11:42:36;9.33;;;7.53;;
14472;SDS011;7322;50.872;4.386;2022-08-19T11:45:21;10.70;;;9.60;;
14472;SDS011;7322;50.872;4.386;2022-08-19T11:47:49;11.57;;;10.38;;
14472;SDS011;7322;50.872;4.386;2022-08-19T11:50:16;12.00;;;10.80;;
14472;SDS011;7322;50.872;4.386;2022-08-19T11:52:45;10.83;;;9.73;;
14472;SDS011;7322;50.872;4.386;2022-08-19T11:55:12;10.75;;;9.65;;
14472;SDS011;7322;50.872;4.386;2022-08-19T11:57:39;10.02;;;9.07;;
14472;SDS011;7322;50.872;4.386;2022-08-19T12:00:09;10.05;;;8.30;;
14472;SDS011;7322;50.872;4.386;2022-08-19T12:02:37;10.38;;;8.77;;
14472;SDS011;7322;50.872;4.386;2022-08-19T12:05:05;10.65;;;8.45;;
14472;SDS011;7322;50.872;4.386;2022-08-19T12:07:32;9.07;;;8.18;;
14472;SDS011;7322;50.872;4.386;2022-08-19T12:10:01;10.93;;;8.38;;
14472;SDS011;7322;50.872;4.386;2022-08-19T12:12:28;9.55;;;7.63;;
14472;SDS011;7322;50.872;4.386;2022-08-19T12:14:55;10.93;;;8.35;;
14472;SDS011;7322;50.872;4.386;2022-08-19T12:17:23;7.15;;;6.45;;
14472;SDS011;7322;50.872;4.386;2022-08-19T12:19:50;8.30;;;6.40;;
14472;SDS011;7322;50.872;4.386;2022-08-19T12:22:18;10.65;;;6.93;;
14472;SDS011;7322;50.872;4.386;2022-08-19T12:24:45;6.88;;;6.05;;
14472;SDS011;7322;50.872;4.386;2022-08-19T12:27:22;7.25;;;5.72;;
14472;SDS011;7322;50.872;4.386;2022-08-19T12:29:49;8.35;;;6.28;;
14472;SDS011;7322;50.872;4.386;2022-08-19T12:32:16;6.57;;;5.93;;
14472;SDS011;7322;50.872;4.386;2022-08-19T12:34:44;6.03;;;5.43;;
14472;SDS011;7322;50.872;4.386;2022-08-19T12:37:13;5.70;;;5.07;;
14472;SDS011;7322;50.872;4.386;2022-08-19T12:42:23;5.70;;;4.50;;
14472;SDS011;7322;50.872;4.386;2022-08-19T12:44:51;5.03;;;4.13;;
14472;SDS011;7322;50.872;4.386;2022-08-19T12:47:18;4.65;;;4.07;;
14472;SDS011;7322;50.872;4.386;2022-08-19T12:49:45;4.07;;;3.67;;
14472;SDS011;7322;50.872;4.386;2022-08-19T12:52:12;5.72;;;3.67;;
14472;SDS011;7322;50.872;4.386;2022-08-19T12:54:40;4.78;;;3.65;;
14472;SDS011;7322;50.872;4.386;2022-08-19T12:57:08;4.53;;;3.50;;
14472;SDS011;7322;50.872;4.386;2022-08-19T12:59:38;4.35;;;3.67;;
14472;SDS011;7322;50.872;4.386;2022-08-19T13:02:06;5.07;;;3.35;;
14472;SDS011;7322;50.872;4.386;2022-08-19T13:04:34;3.95;;;3.47;;
14472;SDS011;7322;50.872;4.386;2022-08-19T13:07:05;4.28;;;3.58;;
14472;SDS011;7322;50.872;4.386;2022-08-19T13:09:33;6.35;;;3.60;;
14472;SDS011;7322;50.872;4.386;2022-08-19T13:12:01;4.07;;;3.63;;
14472;SDS011;7322;50.872;4.386;2022-08-19T13:14:33;3.22;;;2.78;;
14472;SDS011;7322;50.872;4.386;2022-08-19T13:17:02;4.30;;;3.35;;
14472;SDS011;7322;50.872;4.386;2022-08-19T13:19:29;4.75;;;2.72;;
14472;SDS011;7322;50.872;4.386;2022-08-19T13:21:56;3.25;;;2.80;;
14472;SDS011;7322;50.872;4.386;2022-08-19T13:24:24;4.20;;;2.60;;
14472;SDS011;7322;50.872;4.386;2022-08-19T13:26:51;4.82;;;2.78;;
14472;SDS011;7322;50.872;4.386;2022-08-19T13:29:18;2.85;;;2.55;;
14472;SDS011;7322;50.872;4.386;2022-08-19T13:32:03;2.58;;;2.38;;
14472;SDS011;7322;50.872;4.386;2022-08-19T13:34:48;2.95;;;2.17;;
14472;SDS011;7322;50.872;4.386;2022-08-19T13:37:15;2.83;;;2.53;;
14472;SDS011;7322;50.872;4.386;2022-08-19T13:40:03;6.50;;;2.30;;
14472;SDS011;7322;50.872;4.386;2022-08-19T13:42:31;3.80;;;2.53;;
14472;SDS011;7322;50.872;4.386;2022-08-19T13:44:58;5.50;;;2.42;;
14472;SDS011;7322;50.872;4.386;2022-08-19T13:47:28;3.90;;;2.67;;
14472;SDS011;7322;50.872;4.386;2022-08-19T13:49:55;2.63;;;2.42;;
14472;SDS011;7322;50.872;4.386;2022-08-19T13:52:23;2.63;;;2.30;;
14472;SDS011;7322;50.872;4.386;2022-08-19T13:54:50;3.95;;;2.45;;
14472;SDS011;7322;50.872;4.386;2022-08-19T13:57:17;4.63;;;2.15;;
14472;SDS011;7322;50.872;4.386;2022-08-19T13:59:46;5.38;;;2.65;;
14472;SDS011;7322;50.872;4.386;2022-08-19T14:02:17;3.50;;;2.80;;
14472;SDS011;7322;50.872;4.386;2022-08-19T14:04:52;9.77;;;2.58;;
14472;SDS011;7322;50.872;4.386;2022-08-19T14:07:21;3.97;;;2.97;;
14472;SDS011;7322;50.872;4.386;2022-08-19T14:09:49;3.08;;;2.55;;
14472;SDS011;7322;50.872;4.386;2022-08-19T14:12:22;5.28;;;3.30;;
14472;SDS011;7322;50.872;4.386;2022-08-19T14:14:49;5.72;;;2.65;;
14472;SDS011;7322;50.872;4.386;2022-08-19T14:17:16;6.65;;;3.55;;
14472;SDS011;7322;50.872;4.386;2022-08-19T14:19:43;4.90;;;2.83;;
14472;SDS011;7322;50.872;4.386;2022-08-19T14:22:11;7.95;;;4.15;;
14472;SDS011;7322;50.872;4.386;2022-08-19T14:24:38;5.18;;;2.45;;
14472;SDS011;7322;50.872;4.386;2022-08-19T14:27:05;3.47;;;2.85;;
14472;SDS011;7322;50.872;4.386;2022-08-19T14:29:33;5.20;;;3.45;;
14472;SDS011;7322;50.872;4.386;2022-08-19T14:32:00;3.65;;;2.90;;
14472;SDS011;7322;50.872;4.386;2022-08-19T14:34:27;3.40;;;2.63;;
14472;SDS011;7322;50.872;4.386;2022-08-19T14:36:56;4.63;;;2.72;;
14472;SDS011;7322;50.872;4.386;2022-08-19T14:39:25;5.45;;;2.20;;
14472;SDS011;7322;50.872;4.386;2022-08-19T14:41:52;3.05;;;2.33;;
14472;SDS011;7322;50.872;4.386;2022-08-19T14:44:19;3.50;;;2.20;;
14472;SDS011;7322;50.872;4.386;2022-08-19T14:46:47;5.25;;;2.90;;
14472;SDS011;7322;50.872;4.386;2022-08-19T14:49:15;4.90;;;2.43;;
14472;SDS011;7322;50.872;4.386;2022-08-19T14:51:43;2.53;;;2.30;;
14472;SDS011;7322;50.872;4.386;2022-08-19T14:54:12;4.27;;;2.60;;
14472;SDS011;7322;50.872;4.386;2022-08-19T14:56:41;2.93;;;2.67;;
14472;SDS011;7322;50.872;4.386;2022-08-19T14:59:08;5.67;;;2.80;;
14472;SDS011;7322;50.872;4.386;2022-08-19T15:01:35;4.73;;;2.70;;
14472;SDS011;7322;50.872;4.386;2022-08-19T15:04:02;4.00;;;2.93;;
14472;SDS011;7322;50.872;4.386;2022-08-19T15:06:29;5.40;;;2.63;;
14472;SDS011;7322;50.872;4.386;2022-08-19T15:08:57;1.90;;;1.50;;
14472;SDS011;7322;50.872;4.386;2022-08-19T15:11:25;3.77;;;1.60;;
14472;SDS011;7322;50.872;4.386;2022-08-19T15:13:55;2.15;;;1.60;;
14472;SDS011;7322;50.872;4.386;2022-08-19T15:16:22;6.65;;;2.00;;
14472;SDS011;7322;50.872;4.386;2022-08-19T15:18:52;2.83;;;1.80;;